Time;durP1;ratioP1;P1;durP2;ratioP2;P2;SDS_P1;SDS_P2;PMS_P1;PMS_P2;Temp;Humidity;BMP_temperature;BMP_pressure;BME280_temperature;BME280_humidity;BME280_pressure;Samples;Min_cycle;Max_cycle;Signal;HPM_P1;HPM_P2
2021/12/12 00:01:20;;;;;;;135.77;71.53;;;3.40;99.90;;;;;;5117314;27;20056;-70
2021/12/12 00:03:52;;;;;;;144.55;69.75;;;3.40;99.90;;;;;;5123261;27;20058;-71
2021/12/12 00:06:27;;;;;;;141.88;71.50;;;3.50;99.90;;;;;;5124740;28;20039;-70
2021/12/12 00:08:56;;;;;;;139.48;69.65;;;3.50;99.90;;;;;;5120336;28;20047;-71
2021/12/12 00:11:26;;;;;;;136.48;68.60;;;3.50;99.90;;;;;;5116604;28;20042;-70
2021/12/12 00:13:57;;;;;;;109.60;62.35;;;3.40;99.90;;;;;;5122740;27;20043;-71
2021/12/12 00:16:22;;;;;;;122.70;65.43;;;3.50;99.90;;;;;;5116856;28;20068;-70
2021/12/12 00:18:48;;;;;;;114.53;63.97;;;3.50;99.90;;;;;;5123355;28;20234;-70
2021/12/12 00:21:18;;;;;;;119.45;61.83;;;3.50;99.90;;;;;;5123483;28;20066;-71
2021/12/12 00:23:44;;;;;;;121.07;60.00;;;3.50;99.90;;;;;;5109501;28;20043;-70
2021/12/12 00:26:10;;;;;;;108.78;60.80;;;3.50;99.90;;;;;;5126737;27;20071;-71
2021/12/12 00:28:36;;;;;;;112.22;58.28;;;3.50;99.90;;;;;;5114573;27;20047;-71
2021/12/12 00:31:10;;;;;;;115.22;60.78;;;3.50;99.90;;;;;;5157977;27;20074;-70
2021/12/12 00:33:37;;;;;;;114.28;60.05;;;3.50;99.90;;;;;;5128709;27;20414;-70
2021/12/12 00:36:04;;;;;;;105.25;57.50;;;3.50;99.90;;;;;;5127398;27;20043;-70
2021/12/12 00:38:31;;;;;;;104.72;57.80;;;3.50;99.90;;;;;;5118794;28;20055;-70
2021/12/12 00:41:05;;;;;;;103.85;58.75;;;3.50;99.90;;;;;;5123642;28;20043;-70
2021/12/12 00:43:39;;;;;;;95.40;56.65;;;3.50;99.90;;;;;;5126052;27;20039;-71
2021/12/12 00:46:07;;;;;;;102.63;57.78;;;3.60;99.90;;;;;;5124396;27;20062;-71
2021/12/12 00:48:34;;;;;;;108.28;59.80;;;3.60;99.90;;;;;;5114059;28;20055;-71
2021/12/12 00:51:03;;;;;;;101.82;58.35;;;3.60;99.90;;;;;;5119460;27;20055;-70
2021/12/12 00:53:30;;;;;;;98.97;57.47;;;3.50;99.90;;;;;;5115306;28;20055;-71
2021/12/12 00:55:57;;;;;;;102.93;56.83;;;3.60;99.90;;;;;;5125930;28;20037;-70
2021/12/12 00:58:24;;;;;;;98.53;55.00;;;3.60;99.90;;;;;;5125842;28;20043;-71
2021/12/12 01:00:57;;;;;;;94.90;56.60;;;3.60;99.90;;;;;;5121727;27;20305;-71
2021/12/12 01:03:29;;;;;;;105.50;57.65;;;3.60;99.90;;;;;;5129754;27;20505;-71
2021/12/12 01:05:58;;;;;;;98.13;56.90;;;3.60;99.90;;;;;;5156258;27;20042;-70
2021/12/12 01:08:24;;;;;;;95.15;55.42;;;3.60;99.90;;;;;;5125017;27;20053;-70
2021/12/12 01:11:00;;;;;;;92.97;53.40;;;3.60;99.90;;;;;;5129110;27;20051;-70
2021/12/12 01:13:26;;;;;;;98.32;53.65;;;3.60;99.90;;;;;;5129239;27;20074;-71
2021/12/12 01:16:01;;;;;;;90.43;52.88;;;3.70;99.90;;;;;;5127259;27;20527;-70
2021/12/12 01:18:31;;;;;;;90.80;53.45;;;3.70;99.90;;;;;;5131723;27;20042;-70
2021/12/12 01:21:11;;;;;;;93.07;53.92;;;3.70;99.90;;;;;;5163429;27;20040;-70
2021/12/12 01:23:43;;;;;;;100.95;54.45;;;3.70;99.90;;;;;;5130553;27;20092;-70
2021/12/12 01:26:09;;;;;;;101.97;55.53;;;3.70;99.90;;;;;;5115868;27;20280;-71
2021/12/12 01:28:38;;;;;;;107.80;58.92;;;3.70;99.90;;;;;;5126918;27;20046;-70
2021/12/12 01:31:09;;;;;;;100.78;55.70;;;3.70;99.90;;;;;;5126140;27;20043;-70
2021/12/12 01:33:36;;;;;;;100.95;57.35;;;3.70;99.90;;;;;;5125776;27;20496;-70
2021/12/12 01:36:28;;;;;;;97.55;55.78;;;3.70;99.90;;;;;;5125213;27;20043;-70
2021/12/12 01:38:58;;;;;;;103.82;56.78;;;3.70;99.90;;;;;;5120959;27;20118;-70
2021/12/12 01:41:35;;;;;;;106.55;57.28;;;3.70;99.90;;;;;;5124701;27;20047;-71
2021/12/12 01:44:16;;;;;;;102.15;55.05;;;3.80;99.90;;;;;;5120244;27;20493;-70
2021/12/12 01:46:46;;;;;;;95.68;55.35;;;3.80;99.90;;;;;;5121998;27;20084;-71
2021/12/12 01:49:21;;;;;;;100.78;55.72;;;3.70;99.90;;;;;;5119814;27;20126;-71
2021/12/12 01:51:48;;;;;;;94.40;53.80;;;3.70;99.90;;;;;;5113610;27;20100;-70
2021/12/12 01:54:18;;;;;;;82.22;51.75;;;3.70;99.90;;;;;;5119144;27;20058;-71
2021/12/12 01:56:53;;;;;;;90.43;52.13;;;3.80;99.90;;;;;;5119018;27;20031;-71
2021/12/12 01:59:24;;;;;;;93.10;49.95;;;3.80;99.90;;;;;;5124492;27;20039;-71
2021/12/12 02:02:05;;;;;;;85.78;50.20;;;3.70;99.90;;;;;;5123002;27;20054;-71
2021/12/12 02:04:38;;;;;;;95.25;50.65;;;3.80;99.90;;;;;;5124629;27;20058;-71
2021/12/12 02:07:07;;;;;;;85.97;50.50;;;3.80;99.90;;;;;;5123147;27;20073;-70
2021/12/12 02:09:34;;;;;;;101.63;55.17;;;3.80;99.90;;;;;;5123579;27;20043;-70
2021/12/12 02:12:00;;;;;;;85.28;50.95;;;3.80;99.90;;;;;;5125667;27;20574;-71
2021/12/12 02:14:29;;;;;;;80.47;47.22;;;3.80;99.90;;;;;;5119624;27;20047;-70
2021/12/12 02:17:18;;;;;;;75.97;46.63;;;3.80;99.90;;;;;;5123789;27;20050;-70
2021/12/12 02:22:35;;;;;;;70.90;43.55;;;3.80;99.90;;;;;;5127955;27;20047;-70
2021/12/12 02:36:10;;;;;;;63.78;40.15;;;3.90;99.90;;;;;;5120794;27;20089;-71
2021/12/12 02:38:36;;;;;;;66.00;39.38;;;3.90;99.90;;;;;;5123685;27;20390;-71
2021/12/12 02:41:09;;;;;;;67.53;42.50;;;3.90;99.90;;;;;;5125906;27;20055;-71
2021/12/12 02:43:42;;;;;;;64.03;39.80;;;3.90;99.90;;;;;;5122030;27;20150;-70
2021/12/12 02:46:08;;;;;;;64.60;41.00;;;3.90;99.90;;;;;;5120321;27;20372;-70
2021/12/12 02:48:39;;;;;;;73.93;42.03;;;3.90;99.90;;;;;;5134189;27;20666;-70
2021/12/12 02:51:08;;;;;;;70.40;42.35;;;4.00;99.90;;;;;;5114299;27;20039;-70
2021/12/12 02:53:38;;;;;;;79.60;44.30;;;4.00;99.90;;;;;;5121276;27;20508;-71
2021/12/12 02:56:08;;;;;;;80.63;44.55;;;4.00;99.90;;;;;;5148105;27;20075;-70
2021/12/12 02:58:34;;;;;;;86.03;46.65;;;4.00;99.90;;;;;;5116931;27;20043;-70
2021/12/12 03:01:35;;;;;;;76.15;44.80;;;4.00;99.90;;;;;;5117042;27;20530;-70
2021/12/12 03:04:00;;;;;;;77.05;43.40;;;4.00;99.90;;;;;;5103447;27;20043;-71
2021/12/12 03:06:31;;;;;;;73.80;43.10;;;4.00;99.90;;;;;;5116670;27;20045;-70
2021/12/12 03:09:04;;;;;;;78.38;42.88;;;4.00;99.90;;;;;;5123033;27;20617;-70
2021/12/12 03:11:30;;;;;;;70.35;42.15;;;4.00;99.90;;;;;;5117835;27;20055;-70
2021/12/12 03:13:58;;;;;;;72.57;39.75;;;4.00;99.90;;;;;;5123917;27;20072;-70
2021/12/12 03:16:24;;;;;;;66.10;38.83;;;4.00;99.90;;;;;;5122548;27;20051;-70
2021/12/12 03:18:50;;;;;;;67.07;37.97;;;4.00;99.90;;;;;;5119184;27;20119;-71
2021/12/12 03:21:30;;;;;;;66.05;39.67;;;4.00;99.90;;;;;;5121474;27;20181;-70
2021/12/12 03:24:05;;;;;;;81.00;42.25;;;4.00;99.90;;;;;;5111804;27;20177;-71
2021/12/12 03:26:31;;;;;;;67.30;38.35;;;4.00;99.90;;;;;;5110502;27;20051;-71
2021/12/12 03:28:58;;;;;;;71.63;38.78;;;4.00;99.90;;;;;;5116950;27;20487;-71
2021/12/12 03:31:29;;;;;;;;;;;4.10;99.90;;;;;;5123973;27;20231;-71
2021/12/12 03:33:55;;;;;;;60.75;36.25;;;4.00;99.90;;;;;;5112750;27;19945;-71
2021/12/12 03:36:22;;;;;;;60.85;36.00;;;4.00;99.90;;;;;;5131402;27;20173;-69
2021/12/12 03:38:52;;;;;;;66.30;36.53;;;4.10;99.90;;;;;;5121703;27;20050;-69
2021/12/12 03:41:27;;;;;;;62.55;35.50;;;4.10;99.90;;;;;;5124403;27;20108;-69
2021/12/12 03:43:56;;;;;;;59.53;34.28;;;4.00;99.90;;;;;;5118614;27;20597;-69
2021/12/12 03:46:22;;;;;;;56.45;33.00;;;4.10;99.90;;;;;;5133772;27;20122;-70
2021/12/12 03:48:48;;;;;;;53.92;32.70;;;4.10;99.90;;;;;;5138450;27;20599;-70
2021/12/12 03:51:17;;;;;;;72.20;36.70;;;4.10;99.90;;;;;;5122748;27;20039;-70
2021/12/12 03:53:43;;;;;;;71.05;38.22;;;4.10;99.90;;;;;;5125353;27;20050;-70
2021/12/12 03:56:11;;;;;;;71.10;38.17;;;4.10;99.90;;;;;;5124832;27;20063;-70
2021/12/12 03:58:38;;;;;;;64.55;34.15;;;4.20;99.90;;;;;;5117160;27;20089;-69
2021/12/12 04:01:12;;;;;;;57.50;31.52;;;4.20;99.90;;;;;;5118889;27;20038;-69
2021/12/12 04:03:39;;;;;;;53.47;31.10;;;4.20;99.90;;;;;;5124306;27;20043;-70
2021/12/12 04:06:09;;;;;;;56.42;30.95;;;4.20;99.90;;;;;;5123232;27;20039;-69
2021/12/12 04:08:42;;;;;;;51.17;29.02;;;4.20;99.90;;;;;;5154290;27;20083;-70
2021/12/12 04:11:23;;;;;;;55.60;30.95;;;4.20;99.90;;;;;;5125305;28;20047;-70
2021/12/12 04:13:51;;;;;;;57.63;31.13;;;4.30;99.90;;;;;;5123200;28;20044;-70
2021/12/12 04:16:19;;;;;;;50.88;30.02;;;4.30;99.90;;;;;;5123937;27;20093;-70
2021/12/12 04:18:44;;;;;;;49.78;29.75;;;4.30;99.90;;;;;;5128125;27;20126;-70
2021/12/12 04:21:12;;;;;;;54.80;31.92;;;4.30;99.90;;;;;;5123353;28;20122;-70
2021/12/12 04:23:39;;;;;;;51.03;32.00;;;4.30;99.90;;;;;;5124923;28;20054;-70
2021/12/12 04:26:23;;;;;;;54.10;31.73;;;4.30;99.90;;;;;;5122643;28;20506;-69
2021/12/12 04:29:12;;;;;;;53.85;30.40;;;4.40;99.90;;;;;;5123891;27;20043;-70
2021/12/12 04:31:41;;;;;;;49.15;30.58;;;4.40;99.90;;;;;;5116908;27;20046;-70
2021/12/12 04:34:08;;;;;;;56.67;31.08;;;4.40;99.90;;;;;;5113408;27;20045;-69
2021/12/12 04:36:40;;;;;;;50.85;30.92;;;4.40;99.90;;;;;;5127058;27;20038;-70
2021/12/12 04:39:10;;;;;;;60.95;32.45;;;4.40;99.90;;;;;;5153768;27;20047;-69
2021/12/12 04:41:36;;;;;;;59.50;32.00;;;4.40;99.90;;;;;;5124921;27;20071;-70
2021/12/12 04:44:03;;;;;;;57.42;31.65;;;4.40;99.90;;;;;;5129961;27;20075;-70
2021/12/12 04:52:20;;;;;;;50.90;28.63;;;4.50;99.90;;;;;;5127442;27;20465;-70
2021/12/12 04:54:53;;;;;;;49.20;29.60;;;4.50;99.90;;;;;;5128265;27;20043;-70
2021/12/12 04:57:31;;;;;;;47.17;27.85;;;4.50;99.90;;;;;;5131645;27;20165;-69
2021/12/12 05:00:02;;;;;;;;;;;4.50;99.90;;;;;;5119173;27;20054;-70
2021/12/12 05:02:54;;;;;;;49.60;27.08;;;4.50;99.90;;;;;;5125125;27;19919;-70
2021/12/12 05:05:33;;;;;;;50.63;28.27;;;4.50;99.90;;;;;;5117227;27;20047;-70
2021/12/12 05:08:04;;;;;;;45.47;25.10;;;4.60;99.90;;;;;;5128091;27;20054;-70
2021/12/12 05:10:37;;;;;;;40.53;24.27;;;4.60;99.90;;;;;;5127874;27;20051;-69
2021/12/12 05:13:24;;;;;;;41.00;23.00;;;4.60;99.90;;;;;;5163932;27;20099;-70
2021/12/12 05:15:52;;;;;;;;;;;4.70;99.90;;;;;;5128570;27;20096;-69
2021/12/12 05:18:28;;;;;;;32.65;22.17;;;4.70;99.90;;;;;;5127908;27;20310;-70
2021/12/12 05:21:08;;;;;;;39.28;25.08;;;4.70;99.90;;;;;;5125255;27;20154;-70
2021/12/12 05:23:36;;;;;;;41.30;24.73;;;4.70;99.90;;;;;;5123867;27;20126;-69
2021/12/12 05:26:06;;;;;;;37.28;21.65;;;4.70;99.90;;;;;;5128910;27;20050;-70
2021/12/12 05:28:41;;;;;;;36.80;22.73;;;4.70;99.90;;;;;;5122553;27;20051;-70
2021/12/12 05:31:09;;;;;;;35.78;21.60;;;4.80;99.90;;;;;;5129271;27;20084;-70
2021/12/12 05:33:36;;;;;;;39.38;22.05;;;4.80;99.90;;;;;;5128114;27;20152;-70
2021/12/12 05:36:05;;;;;;;35.63;20.87;;;4.80;99.90;;;;;;5118435;27;20062;-69
2021/12/12 05:38:32;;;;;;;32.20;20.50;;;4.80;99.90;;;;;;5120756;27;20410;-70
2021/12/12 05:40:57;;;;;;;31.23;19.70;;;4.80;99.90;;;;;;5123090;27;20043;-70
2021/12/12 05:43:24;;;;;;;31.38;20.20;;;4.80;99.90;;;;;;5123025;27;20074;-70
2021/12/12 05:45:51;;;;;;;28.67;18.92;;;4.90;99.90;;;;;;5125326;27;20043;-70
2021/12/12 05:48:17;;;;;;;;;;;4.90;99.90;;;;;;5130157;27;20059;-70
2021/12/12 05:50:44;;;;;;;25.83;17.10;;;4.90;99.90;;;;;;5124268;27;20339;-70
2021/12/12 05:53:12;;;;;;;25.63;17.00;;;4.80;99.90;;;;;;5112107;27;20054;-70
2021/12/12 05:55:38;;;;;;;25.27;16.02;;;4.90;99.90;;;;;;5122599;27;20047;-70
2021/12/12 05:58:08;;;;;;;22.73;16.13;;;4.90;99.90;;;;;;5112131;27;20040;-70
2021/12/12 06:00:48;;;;;;;26.08;16.05;;;4.90;99.90;;;;;;5147461;27;20054;-70
2021/12/12 06:03:17;;;;;;;20.92;14.05;;;4.90;99.90;;;;;;5111056;27;20436;-70
2021/12/12 06:05:43;;;;;;;22.00;15.80;;;4.90;99.90;;;;;;5126952;27;20075;-70
2021/12/12 06:08:10;;;;;;;22.38;15.00;;;5.00;99.90;;;;;;5127271;27;20047;-70
2021/12/12 06:10:38;;;;;;;20.63;13.95;;;5.00;99.90;;;;;;5125979;27;20394;-70
2021/12/12 06:13:09;;;;;;;19.23;14.45;;;5.00;99.90;;;;;;5115813;27;20465;-69
2021/12/12 06:15:36;;;;;;;21.25;15.15;;;5.00;99.90;;;;;;5132288;27;20062;-70
2021/12/12 06:18:02;;;;;;;23.83;15.27;;;5.00;99.90;;;;;;5130718;27;20043;-70
2021/12/12 06:20:28;;;;;;;22.40;15.35;;;5.00;99.90;;;;;;5126114;27;20119;-70
2021/12/12 06:22:55;;;;;;;24.70;16.88;;;5.00;99.90;;;;;;5125929;27;20051;-69
2021/12/12 06:25:22;;;;;;;21.87;15.00;;;5.00;99.90;;;;;;5158238;27;20035;-70
2021/12/12 06:27:47;;;;;;;24.67;16.05;;;5.00;99.90;;;;;;5127466;27;20428;-70
2021/12/12 06:30:17;;;;;;;23.77;16.30;;;5.00;99.90;;;;;;5158492;27;20047;-70
2021/12/12 06:32:45;;;;;;;23.48;16.60;;;5.00;99.90;;;;;;5123334;27;20077;-70
2021/12/12 06:35:11;;;;;;;;;;;5.00;99.90;;;;;;5128338;27;20058;-70
2021/12/12 06:37:37;;;;;;;25.90;17.33;;;5.00;99.90;;;;;;5121956;27;20007;-70
2021/12/12 06:40:05;;;;;;;24.67;16.35;;;5.00;99.90;;;;;;5133366;27;20045;-70
2021/12/12 06:42:31;;;;;;;18.67;15.07;;;5.00;99.90;;;;;;5127429;27;20497;-70
2021/12/12 06:44:57;;;;;;;21.67;15.90;;;5.00;99.90;;;;;;5162230;27;20050;-70
2021/12/12 06:47:23;;;;;;;20.42;15.60;;;5.00;99.90;;;;;;5119076;27;20043;-70
2021/12/12 06:49:49;;;;;;;22.15;15.82;;;5.00;99.90;;;;;;5119390;27;20054;-70
2021/12/12 06:52:16;;;;;;;22.10;16.20;;;5.10;99.90;;;;;;5118932;27;20391;-70
2021/12/12 06:54:42;;;;;;;22.27;16.40;;;5.10;99.90;;;;;;5126448;27;20501;-70
2021/12/12 06:57:12;;;;;;;21.70;16.48;;;5.10;99.90;;;;;;5125752;27;20362;-70
2021/12/12 06:59:40;;;;;;;21.95;17.23;;;5.00;99.90;;;;;;5122023;27;20051;-69
2021/12/12 07:02:07;;;;;;;23.80;16.67;;;5.10;99.90;;;;;;5122016;27;20049;-70
2021/12/12 07:04:34;;;;;;;22.50;18.65;;;5.10;99.90;;;;;;5124563;27;20490;-70
2021/12/12 07:07:01;;;;;;;22.95;17.50;;;5.10;99.90;;;;;;5120273;27;20032;-70
2021/12/12 07:09:33;;;;;;;23.23;18.38;;;5.10;99.90;;;;;;5123292;27;20472;-70
2021/12/12 07:12:04;;;;;;;24.30;19.15;;;5.10;99.90;;;;;;5128333;27;20043;-70
2021/12/12 07:14:32;;;;;;;22.08;18.73;;;5.10;99.90;;;;;;5125602;27;20043;-69
2021/12/12 07:16:57;;;;;;;;;;;5.10;99.90;;;;;;5123043;27;20041;-69
2021/12/12 07:19:24;;;;;;;24.63;19.50;;;5.10;99.90;;;;;;5151405;27;20022;-70
2021/12/12 07:21:50;;;;;;;25.00;20.38;;;5.10;99.90;;;;;;5120111;27;20470;-70
2021/12/12 07:24:22;;;;;;;26.70;20.38;;;5.10;99.90;;;;;;5122113;27;20050;-70
2021/12/12 07:26:48;;;;;;;25.80;20.95;;;5.10;99.90;;;;;;5122231;27;20039;-70
2021/12/12 07:29:14;;;;;;;25.98;21.23;;;5.20;99.90;;;;;;5151920;27;20099;-70
2021/12/12 07:31:41;;;;;;;27.65;21.58;;;5.20;99.90;;;;;;5115239;27;20122;-70
2021/12/12 07:34:13;;;;;;;25.63;21.52;;;5.20;99.90;;;;;;5117562;27;20474;-70
2021/12/12 07:36:50;;;;;;;27.10;21.25;;;5.20;99.90;;;;;;5117100;27;20071;-70
2021/12/12 07:39:17;;;;;;;26.75;20.75;;;5.20;99.90;;;;;;5147041;27;20084;-69
2021/12/12 07:41:45;;;;;;;;;;;5.20;99.90;;;;;;5122853;27;20046;-70
2021/12/12 07:44:13;;;;;;;24.55;19.15;;;5.20;99.90;;;;;;5123925;27;19947;-70
2021/12/12 07:46:40;;;;;;;24.15;20.80;;;5.20;99.90;;;;;;5122226;27;20031;-69
2021/12/12 07:49:06;;;;;;;29.00;21.90;;;5.20;99.90;;;;;;5120290;27;20126;-70
2021/12/12 07:51:33;;;;;;;27.33;21.63;;;5.20;99.90;;;;;;5125594;27;20118;-70
2021/12/12 07:54:00;;;;;;;;;;;5.20;99.90;;;;;;5125433;27;20055;-70
2021/12/12 07:56:29;;;;;;;26.23;21.17;;;5.30;99.90;;;;;;5122134;27;19923;-70
2021/12/12 07:58:57;;;;;;;27.58;21.00;;;5.20;99.90;;;;;;5126636;27;20235;-69
2021/12/12 08:01:24;;;;;;;26.00;20.95;;;5.30;99.90;;;;;;5113078;27;20173;-71
2021/12/12 08:03:53;;;;;;;26.63;20.40;;;5.30;99.90;;;;;;5122060;27;20039;-72
2021/12/12 08:06:19;;;;;;;28.15;20.65;;;5.30;99.90;;;;;;5161156;27;20216;-70
2021/12/12 08:08:45;;;;;;;25.00;19.30;;;5.30;99.90;;;;;;5145025;27;20039;-72
2021/12/12 08:11:20;;;;;;;23.63;19.13;;;5.30;99.90;;;;;;5110718;27;20040;-72
2021/12/12 08:13:46;;;;;;;25.13;18.95;;;5.40;99.90;;;;;;5141120;27;20055;-73
2021/12/12 08:16:14;;;;;;;24.95;19.95;;;5.40;99.90;;;;;;5117544;27;20043;-72
2021/12/12 08:18:40;;;;;;;24.33;19.73;;;5.40;99.90;;;;;;5123680;28;20076;-75
2021/12/12 08:21:07;;;;;;;28.63;21.10;;;5.40;99.90;;;;;;5120440;27;20120;-73
2021/12/12 08:23:35;;;;;;;25.85;19.73;;;5.40;99.90;;;;;;5122223;28;20051;-75
2021/12/12 08:26:02;;;;;;;;;;;5.40;99.90;;;;;;5129388;27;20502;-75
2021/12/12 08:28:29;;;;;;;29.38;20.05;;;5.40;99.90;;;;;;5125747;27;19930;-76
2021/12/12 08:30:56;;;;;;;25.98;18.67;;;5.40;99.90;;;;;;5128173;27;20042;-75
2021/12/12 08:33:22;;;;;;;29.20;20.07;;;5.50;99.90;;;;;;5125952;28;20047;-75
2021/12/12 08:35:49;;;;;;;32.08;21.95;;;5.50;99.90;;;;;;5117150;27;20845;-76
2021/12/12 08:38:16;;;;;;;33.10;22.30;;;5.50;99.90;;;;;;5112596;27;20043;-76
2021/12/12 08:40:49;;;;;;;32.53;22.98;;;5.50;99.90;;;;;;5106780;28;20122;-75
2021/12/12 08:43:17;;;;;;;36.58;25.10;;;5.50;99.90;;;;;;5117690;28;20055;-72
2021/12/12 08:45:48;;;;;;;29.63;22.23;;;5.50;99.90;;;;;;5119810;28;20043;-73
2021/12/12 08:48:16;;;;;;;30.10;22.65;;;5.60;99.90;;;;;;5110561;28;20062;-73
2021/12/12 08:50:43;;;;;;;34.00;21.67;;;5.60;99.90;;;;;;5118189;27;20039;-74
2021/12/12 08:53:09;;;;;;;33.45;23.55;;;5.60;99.90;;;;;;5118122;27;20047;-70
2021/12/12 08:55:39;;;;;;;33.05;23.20;;;5.60;99.90;;;;;;5136616;27;20038;-70
2021/12/12 08:58:14;;;;;;;29.20;22.33;;;5.70;99.90;;;;;;5125030;27;20043;-71
2021/12/12 09:00:49;;;;;;;34.17;23.08;;;5.70;99.90;;;;;;5125188;27;20043;-70
2021/12/12 09:03:36;;;;;;;31.45;22.65;;;5.70;99.90;;;;;;5124349;28;20088;-71
2021/12/12 09:06:02;;;;;;;;;;;5.70;99.90;;;;;;5126789;27;20043;-70
2021/12/12 09:08:39;;;;;;;30.25;22.15;;;5.80;99.90;;;;;;5126963;27;19923;-71
2021/12/12 09:11:15;;;;;;;30.42;22.55;;;5.80;99.90;;;;;;5135215;27;20046;-70
2021/12/12 09:13:53;;;;;;;27.95;21.20;;;5.80;99.90;;;;;;5122938;28;20054;-70
2021/12/12 09:16:29;;;;;;;29.58;21.92;;;5.80;99.90;;;;;;5125711;28;20092;-70
2021/12/12 09:19:03;;;;;;;31.33;22.52;;;5.90;99.90;;;;;;5122844;27;20079;-70
2021/12/12 09:21:48;;;;;;;26.88;20.23;;;5.90;99.90;;;;;;5124536;27;20050;-70
2021/12/12 09:24:26;;;;;;;28.73;19.98;;;5.90;99.90;;;;;;5129844;27;20035;-70
2021/12/12 09:26:56;;;;;;;27.92;20.20;;;5.90;99.90;;;;;;5134247;27;20114;-70
2021/12/12 09:29:43;;;;;;;25.45;20.00;;;5.90;99.90;;;;;;5140682;27;20047;-70
2021/12/12 09:32:12;;;;;;;27.20;19.07;;;6.00;99.90;;;;;;5126063;27;20038;-70
2021/12/12 09:34:56;;;;;;;27.02;18.73;;;6.00;99.90;;;;;;5127526;27;20097;-70
2021/12/12 09:37:32;;;;;;;27.80;19.80;;;6.00;99.90;;;;;;5120765;27;20067;-70
2021/12/12 09:40:33;;;;;;;29.90;20.08;;;6.00;99.90;;;;;;5120849;27;20076;-70
2021/12/12 09:43:10;;;;;;;30.75;20.55;;;6.10;99.90;;;;;;5128592;27;20046;-71
2021/12/12 09:45:38;;;;;;;31.25;21.65;;;6.10;99.90;;;;;;5128603;27;20047;-70
2021/12/12 09:52:08;;;;;;;34.15;21.77;;;6.20;99.90;;;;;;5129916;27;20049;-70
2021/12/12 09:54:57;;;;;;;34.03;21.38;;;6.20;99.90;;;;;;5108260;28;20130;-70
2021/12/12 09:57:35;;;;;;;34.72;22.67;;;6.20;99.90;;;;;;5115423;27;20028;-71
2021/12/12 10:00:27;;;;;;;39.10;23.60;;;6.20;99.90;;;;;;5127678;27;20047;-71
2021/12/12 10:03:07;;;;;;;40.80;25.60;;;6.20;99.90;;;;;;5115699;27;20055;-71
2021/12/12 10:05:48;;;;;;;37.70;24.65;;;6.30;99.90;;;;;;5129583;27;20058;-71
2021/12/12 10:08:28;;;;;;;43.85;24.42;;;6.30;99.90;;;;;;5127038;27;20045;-71
2021/12/12 10:11:02;;;;;;;44.38;25.13;;;6.30;99.90;;;;;;5127691;27;20610;-71
2021/12/12 10:13:48;;;;;;;41.80;24.52;;;6.40;99.90;;;;;;5128191;27;20032;-71
2021/12/12 10:16:19;;;;;;;40.22;24.98;;;6.40;99.90;;;;;;5128331;27;20383;-71
2021/12/12 10:18:47;;;;;;;45.58;25.83;;;6.40;99.90;;;;;;5146207;27;20078;-71
2021/12/12 10:21:30;;;;;;;41.33;24.55;;;6.40;99.90;;;;;;5125001;27;20059;-71
2021/12/12 10:24:26;;;;;;;40.85;24.95;;;6.50;99.90;;;;;;5111779;27;20055;-71
2021/12/12 10:27:11;;;;;;;41.03;25.55;;;6.50;99.90;;;;;;5117540;27;20051;-72
2021/12/12 10:30:04;;;;;;;43.92;26.98;;;6.60;99.90;;;;;;5108040;27;20086;-72
2021/12/12 10:32:34;;;;;;;44.60;25.90;;;6.60;99.90;;;;;;5139776;27;20070;-72
2021/12/12 10:35:12;;;;;;;42.30;24.92;;;6.70;99.90;;;;;;5122473;27;20058;-73
2021/12/12 10:37:45;;;;;;;48.78;26.70;;;6.70;99.90;;;;;;5128201;27;20075;-75
2021/12/12 10:40:18;;;;;;;48.17;26.67;;;6.70;99.90;;;;;;5110327;27;20501;-74
2021/12/12 10:42:55;;;;;;;43.85;25.13;;;6.80;99.90;;;;;;5120310;27;20092;-73
2021/12/12 10:45:30;;;;;;;39.42;23.63;;;6.80;99.90;;;;;;5127963;27;20074;-72
2021/12/12 10:48:05;;;;;;;37.65;22.90;;;6.80;99.90;;;;;;5127460;27;20062;-71
2021/12/12 10:50:41;;;;;;;37.47;23.63;;;6.90;99.90;;;;;;5112993;27;20051;-70
2021/12/12 10:53:39;;;;;;;37.65;23.77;;;6.90;99.90;;;;;;5107217;27;20039;-71
2021/12/12 10:56:17;;;;;;;39.15;23.45;;;7.00;99.90;;;;;;5120625;27;20050;-72
2021/12/12 10:58:51;;;;;;;33.85;22.35;;;7.00;99.90;;;;;;5141190;27;20495;-71
2021/12/12 11:01:22;;;;;;;36.67;23.27;;;7.00;99.90;;;;;;5124408;27;20047;-71
2021/12/12 11:04:12;;;;;;;40.85;23.92;;;7.00;99.90;;;;;;5113935;27;20054;-71
2021/12/12 11:06:41;;;;;;;35.70;22.70;;;7.10;99.90;;;;;;5126022;27;20079;-71
2021/12/12 11:09:34;;;;;;;32.05;21.25;;;7.00;99.90;;;;;;5123513;27;20513;-71
2021/12/12 11:12:29;;;;;;;34.10;22.48;;;7.20;99.90;;;;;;5132278;27;20050;-71
2021/12/12 11:15:07;;;;;;;32.50;20.73;;;7.20;99.90;;;;;;5116557;27;20074;-72
2021/12/12 11:17:50;;;;;;;30.58;21.25;;;7.20;99.90;;;;;;5128800;27;20051;-70
2021/12/12 11:20:24;;;;;;;35.33;21.30;;;7.20;99.90;;;;;;5121160;27;20497;-72
2021/12/12 11:22:55;;;;;;;31.20;21.42;;;7.30;99.90;;;;;;5127085;27;20485;-72
2021/12/12 11:26:08;;;;;;;32.05;20.60;;;7.30;99.90;;;;;;5114283;27;20466;-72
2021/12/12 11:28:40;;;;;;;34.33;19.45;;;7.30;99.90;;;;;;5124266;27;20089;-71
2021/12/12 11:31:13;;;;;;;32.95;20.38;;;7.30;99.90;;;;;;5136775;27;20072;-72
2021/12/12 11:33:42;;;;;;;26.65;19.02;;;7.40;99.90;;;;;;5128678;27;20059;-71
2021/12/12 11:36:14;;;;;;;28.45;19.40;;;7.40;99.90;;;;;;5120670;27;20439;-72
2021/12/12 11:38:46;;;;;;;27.45;18.77;;;7.40;99.90;;;;;;5116925;27;20044;-72
2021/12/12 11:41:19;;;;;;;24.42;16.85;;;7.40;99.90;;;;;;5153965;27;20095;-72
2021/12/12 11:43:56;;;;;;;27.02;18.00;;;7.50;99.90;;;;;;5128818;27;20050;-72
2021/12/12 11:47:12;;;;;;;25.23;17.95;;;7.50;99.90;;;;;;5159284;27;20161;-72
2021/12/12 11:49:57;;;;;;;28.33;18.10;;;7.50;99.90;;;;;;5100388;27;20086;-72
2021/12/12 11:52:50;;;;;;;28.52;18.63;;;7.50;99.90;;;;;;5128991;27;20035;-72
2021/12/12 11:55:48;;;;;;;24.10;17.50;;;7.60;99.90;;;;;;5121750;27;20123;-72
2021/12/12 11:58:53;;;;;;;26.38;18.25;;;7.60;99.90;;;;;;5116719;27;20046;-72
2021/12/12 12:01:44;;;;;;;27.23;18.00;;;7.60;99.90;;;;;;5083883;27;20533;-72
2021/12/12 12:04:35;;;;;;;28.00;18.25;;;7.60;99.90;;;;;;5122494;27;20520;-73
2021/12/12 12:07:20;;;;;;;27.17;18.90;;;7.60;99.90;;;;;;5122336;27;20088;-70
2021/12/12 12:10:11;;;;;;;25.67;17.67;;;7.70;99.90;;;;;;5121872;27;20394;-71
2021/12/12 12:12:48;;;;;;;27.52;17.27;;;7.70;99.90;;;;;;5122058;27;20031;-73
2021/12/12 12:15:59;;;;;;;24.85;16.20;;;7.70;99.90;;;;;;5125958;28;20047;-72
2021/12/12 12:18:46;;;;;;;25.50;16.85;;;7.70;99.90;;;;;;5125027;27;20720;-73
2021/12/12 12:21:19;;;;;;;27.20;17.88;;;7.70;99.90;;;;;;5109462;28;20432;-73
2021/12/12 12:27:06;;;;;;;29.90;18.90;;;7.70;99.90;;;;;;5107949;28;20209;-72
2021/12/12 12:29:31;;;;;;;26.75;18.23;;;7.80;99.90;;;;;;5114081;27;20054;-72
2021/12/12 12:32:35;;;;;;;31.50;19.48;;;7.80;99.90;;;;;;5127571;28;20133;-73
2021/12/12 12:35:19;;;;;;;34.13;20.65;;;7.80;99.90;;;;;;5127265;27;20047;-73
2021/12/12 12:38:03;;;;;;;40.28;22.02;;;7.80;99.90;;;;;;5119664;28;20035;-73
2021/12/12 12:40:37;;;;;;;37.17;21.60;;;7.80;99.90;;;;;;5117504;28;20055;-71
2021/12/12 12:43:41;;;;;;;35.30;21.30;;;7.80;99.90;;;;;;5127777;27;20422;-72
2021/12/12 12:46:37;;;;;;;35.58;21.63;;;7.90;99.90;;;;;;5124803;27;20509;-70
2021/12/12 12:50:03;;;;;;;36.97;22.48;;;7.90;99.90;;;;;;5121520;27;20471;-74
2021/12/12 12:52:44;;;;;;;41.45;24.00;;;7.90;99.90;;;;;;5122375;28;20078;-74
2021/12/12 12:55:38;;;;;;;38.42;23.70;;;7.90;99.90;;;;;;5125942;27;20066;-73
2021/12/12 12:59:03;;;;;;;42.88;24.63;;;7.90;99.90;;;;;;5155628;27;20055;-73
2021/12/12 13:02:05;;;;;;;44.95;25.27;;;7.90;99.90;;;;;;5099657;27;20188;-73
2021/12/12 13:04:47;;;;;;;41.20;23.35;;;8.00;99.90;;;;;;5131695;27;20043;-74
2021/12/12 13:07:47;;;;;;;45.92;25.25;;;8.00;99.90;;;;;;5126501;27;20035;-73
2021/12/12 13:10:18;;;;;;;51.20;26.50;;;8.00;99.90;;;;;;5109061;27;20096;-73
2021/12/12 13:13:28;;;;;;;50.13;27.20;;;8.00;99.90;;;;;;5116776;27;20122;-73
2021/12/12 13:16:03;;;;;;;47.13;26.33;;;8.10;99.90;;;;;;5130986;27;20053;-72
2021/12/12 13:18:54;;;;;;;47.75;25.65;;;8.00;99.90;;;;;;5133953;27;20058;-73
2021/12/12 13:22:02;;;;;;;60.92;30.40;;;8.00;99.90;;;;;;5110934;27;20051;-73
2021/12/12 13:24:46;;;;;;;56.00;27.92;;;8.00;99.90;;;;;;5110480;27;20047;-73
2021/12/12 13:28:07;;;;;;;61.28;29.52;;;8.00;99.90;;;;;;5111068;27;20096;-74
2021/12/12 13:30:43;;;;;;;60.17;29.27;;;8.10;99.90;;;;;;5118103;27;20054;-73
2021/12/12 13:33:24;;;;;;;65.78;30.70;;;8.10;99.90;;;;;;5111180;28;20050;-73
2021/12/12 13:36:27;;;;;;;60.55;28.80;;;8.10;99.90;;;;;;5148130;27;20099;-73
2021/12/12 13:39:08;;;;;;;50.80;28.48;;;8.10;99.90;;;;;;5122771;27;20416;-74
2021/12/12 13:41:47;;;;;;;53.65;28.85;;;8.10;99.90;;;;;;5125341;27;20451;-74